Date,TemperatureHighF,TemperatureAvgF,TemperatureLowF,DewpointHighF,DewpointAvgF,DewpointLowF,HumidityHigh,HumidityAvg,HumidityLow,PressureMaxIn,PressureMinIn,WindSpeedMaxMPH,WindSpeedAvgMPH,GustSpeedMaxMPH,PrecipitationSumIn
2013-1-1,46,41,36,45,38,16,99,91,32,30.28,30.01,6,3,0,0.01
2013-1-2,43,35,28,35,31,20,97,85,66,30.33,30.23,6,2,0,0.00
2013-1-3,52,40,27,38,32,16,98,74,54,30.45,30.31,4,1,0,0.00
2013-1-4,53,45,40,41,36,34,91,71,53,30.51,30.34,3,1,0,0.00
2013-1-5,55,45,36,44,41,34,98,87,65,30.34,30.18,8,2,0,0.00
2013-1-6,60,43,33,60,41,4,99,94,27,30.39,30.27,4,1,0,0.00
2013-1-7,57,43,27,55,39,23,98,87,58,30.32,30.08,8,1,0,0.00
2013-1-8,50,48,46,50,44,28,99,86,49,30.08,29.97,5,2,0,1.83
2013-1-9,57,54,48,57,52,12,99,97,17,30.11,29.89,9,3,0,2.00
2013-1-10,60,55,50,57,51,44,99,86,63,29.96,29.88,11,4,0,0.06
2013-1-11,72,60,45,62,51,19,93,73,35,29.92,29.72,10,4,0,0.00
2013-1-12,66,54,37,66,46,15,99,78,14,29.93,29.65,10,3,0,0.08
2013-1-13,45,36,30,33,26,21,89,67,49,30.27,29.93,6,3,0,0.00
2013-1-14,49,37,28,28,23,19,69,59,41,30.34,30.20,8,2,0,0.00
2013-1-15,39,34,30,34,28,23,98,78,64,30.22,30.14,5,2,0,0.06
2013-1-16,51,38,26,28,23,20,85,58,32,30.29,30.14,6,2,0,0.00
2013-1-17,63,46,32,38,33,25,92,63,36,30.48,30.22,5,1,0,0.00
2013-1-18,65,48,30,39,34,22,97,62,35,30.50,30.24,8,2,0,0.00
2013-1-19,68,54,40,49,44,36,95,71,44,30.24,30.10,9,2,0,0.00
2013-1-20,72,53,38,50,43,31,98,73,40,30.19,30.04,6,1,0,0.00
2013-1-21,58,47,39,46,34,28,95,61,41,30.30,30.09,5,2,0,0.00
2013-1-22,60,46,37,52,37,28,90,73,57,30.29,30.16,4,1,0,0.00
2013-1-23,76,62,49,60,54,42,98,80,50,30.24,30.09,11,3,0,0.00
2013-1-24,79,62,54,61,51,16,98,73,22,30.14,30.01,4,1,0,0.00
2013-1-25,53,50,48,48,43,21,96,79,31,30.18,30.02,4,2,0,0.00
2013-1-26,56,50,45,52,43,15,99,79,24,30.20,30.07,6,2,0,0.00
2013-1-27,75,60,50,66,46,12,88,60,22,30.07,29.88,10,4,0,0.00
2013-1-28,78,72,68,69,65,60,90,77,65,29.97,29.80,14,5,0,0.00
2013-1-29,72,71,70,68,67,65,89,87,84,29.80,29.65,11,6,0,0.00
2013-1-30,54,48,36,33,27,21,69,44,30,30.12,30.00,12,5,0,0.00
2013-1-31,71,54,34,70,39,8,99,62,10,30.31,30.05,10,3,0,0.00